Acharn, United Kingdom
Current Conditions -  °F | °C
As of 3:20 PM on Thursday 30 Oct 2014 (Local Time) from EGPF Reporting Station
Drizzle Drizzle  
Wind Chill: 50°   Ceiling: 700
Heat Index: 50°   Visibility: 2.5mi
Dew Point: 50°   Wind: 3mph
Humidity: 100%   Direction: NA
Pressure: 29.85"   Gusts: NA
Location:  56.47°N, 5.02°W
Report Text: EGPF 301520Z VRB03KT 4000 -DZ BKN007 OVC012 10/10 Q1011
Loading
Personal Weather Stations






























Interactive Weather Map
Tropical Storm Tracking
New forecast layout! Learn more

10-Day Weather Forecast

Advertisements
Track Severe Weather on mobile